sensor_id;sensor_type;location;lat;lon;timestamp;temperature;humidity
75683;HTU21D;64295;44.772;39.872;2023-05-02T00:02:00;11.94;63.40
75683;HTU21D;64295;44.772;39.872;2023-05-02T00:04:26;11.94;63.38
75683;HTU21D;64295;44.772;39.872;2023-05-02T00:06:52;11.96;63.34
75683;HTU21D;64295;44.772;39.872;2023-05-02T00:09:21;11.98;63.39
75683;HTU21D;64295;44.772;39.872;2023-05-02T00:11:48;11.98;63.40
75683;HTU21D;64295;44.772;39.872;2023-05-02T00:14:14;11.98;63.41
75683;HTU21D;64295;44.772;39.872;2023-05-02T00:16:45;11.97;63.45
75683;HTU21D;64295;44.772;39.872;2023-05-02T00:19:11;11.97;63.48
75683;HTU21D;64295;44.772;39.872;2023-05-02T00:21:37;11.99;63.51
75683;HTU21D;64295;44.772;39.872;2023-05-02T00:24:03;11.99;63.56
75683;HTU21D;64295;44.772;39.872;2023-05-02T00:26:28;11.97;63.61
75683;HTU21D;64295;44.772;39.872;2023-05-02T00:28:56;11.96;63.68
75683;HTU21D;64295;44.772;39.872;2023-05-02T00:31:22;11.94;63.74
75683;HTU21D;64295;44.772;39.872;2023-05-02T00:33:48;11.94;63.81
75683;HTU21D;64295;44.772;39.872;2023-05-02T00:36:15;11.92;63.86
75683;HTU21D;64295;44.772;39.872;2023-05-02T00:38:43;11.91;63.91
75683;HTU21D;64295;44.772;39.872;2023-05-02T00:41:09;11.92;63.95
75683;HTU21D;64295;44.772;39.872;2023-05-02T00:43:37;11.91;63.99
75683;HTU21D;64295;44.772;39.872;2023-05-02T00:46:06;11.89;64.01
75683;HTU21D;64295;44.772;39.872;2023-05-02T00:48:32;11.90;64.04
75683;HTU21D;64295;44.772;39.872;2023-05-02T00:51:02;11.90;64.07
75683;HTU21D;64295;44.772;39.872;2023-05-02T00:53:30;11.92;64.03
75683;HTU21D;64295;44.772;39.872;2023-05-02T00:56:01;11.89;64.04
75683;HTU21D;64295;44.772;39.872;2023-05-02T00:58:27;11.86;64.09
75683;HTU21D;64295;44.772;39.872;2023-05-02T01:01:08;11.86;64.09
75683;HTU21D;64295;44.772;39.872;2023-05-02T01:04:03;11.86;64.09
75683;HTU21D;64295;44.772;39.872;2023-05-02T01:07:08;11.83;64.09
75683;HTU21D;64295;44.772;39.872;2023-05-02T01:15:31;11.63;64.30
75683;HTU21D;64295;44.772;39.872;2023-05-02T01:18:05;11.58;64.38
75683;HTU21D;64295;44.772;39.872;2023-05-02T01:20:36;11.55;64.40
75683;HTU21D;64295;44.772;39.872;2023-05-02T01:23:10;11.52;64.40
75683;HTU21D;64295;44.772;39.872;2023-05-02T01:31:24;11.44;64.50
75683;HTU21D;64295;44.772;39.872;2023-05-02T01:33:53;11.44;64.48
75683;HTU21D;64295;44.772;39.872;2023-05-02T01:36:22;11.42;64.51
75683;HTU21D;64295;44.772;39.872;2023-05-02T01:38:50;11.42;64.50
75683;HTU21D;64295;44.772;39.872;2023-05-02T01:41:18;11.43;64.47
75683;HTU21D;64295;44.772;39.872;2023-05-02T01:43:47;11.44;64.50
75683;HTU21D;64295;44.772;39.872;2023-05-02T01:46:14;11.46;64.43
75683;HTU21D;64295;44.772;39.872;2023-05-02T01:48:43;11.51;64.42
75683;HTU21D;64295;44.772;39.872;2023-05-02T01:51:14;11.52;64.39
75683;HTU21D;64295;44.772;39.872;2023-05-02T01:53:45;11.52;64.40
75683;HTU21D;64295;44.772;39.872;2023-05-02T01:56:14;11.49;64.45
75683;HTU21D;64295;44.772;39.872;2023-05-02T01:58:42;11.42;64.59
75683;HTU21D;64295;44.772;39.872;2023-05-02T02:01:14;11.40;64.74
75683;HTU21D;64295;44.772;39.872;2023-05-02T02:03:42;11.41;64.69
75683;HTU21D;64295;44.772;39.872;2023-05-02T02:06:09;11.43;64.65
75683;HTU21D;64295;44.772;39.872;2023-05-02T02:08:36;11.43;64.62
75683;HTU21D;64295;44.772;39.872;2023-05-02T02:11:08;11.44;64.68
75683;HTU21D;64295;44.772;39.872;2023-05-02T02:13:39;11.46;64.66
75683;HTU21D;64295;44.772;39.872;2023-05-02T02:16:12;11.51;64.62
75683;HTU21D;64295;44.772;39.872;2023-05-02T02:18:41;11.51;64.61
75683;HTU21D;64295;44.772;39.872;2023-05-02T02:21:19;11.51;64.66
75683;HTU21D;64295;44.772;39.872;2023-05-02T02:24:01;11.52;64.66
75683;HTU21D;64295;44.772;39.872;2023-05-02T02:26:32;11.52;64.59
75683;HTU21D;64295;44.772;39.872;2023-05-02T02:29:07;11.53;64.55
75683;HTU21D;64295;44.772;39.872;2023-05-02T02:31:34;11.53;64.61
75683;HTU21D;64295;44.772;39.872;2023-05-02T02:34:04;11.64;64.51
75683;HTU21D;64295;44.772;39.872;2023-05-02T02:36:44;11.67;64.52
75683;HTU21D;64295;44.772;39.872;2023-05-02T02:39:38;11.72;64.53
75683;HTU21D;64295;44.772;39.872;2023-05-02T02:50:05;11.73;64.66
75683;HTU21D;64295;44.772;39.872;2023-05-02T02:53:19;11.73;64.66
75683;HTU21D;64295;44.772;39.872;2023-05-02T02:55:48;11.71;64.69
75683;HTU21D;64295;44.772;39.872;2023-05-02T03:00:45;11.67;64.82
75683;HTU21D;64295;44.772;39.872;2023-05-02T03:03:13;11.67;64.85
75683;HTU21D;64295;44.772;39.872;2023-05-02T03:05:42;11.70;64.83
75683;HTU21D;64295;44.772;39.872;2023-05-02T03:08:09;11.71;64.80
75683;HTU21D;64295;44.772;39.872;2023-05-02T03:10:35;11.74;64.80
75683;HTU21D;64295;44.772;39.872;2023-05-02T03:13:01;11.75;64.79
75683;HTU21D;64295;44.772;39.872;2023-05-02T03:18:11;11.78;64.76
75683;HTU21D;64295;44.772;39.872;2023-05-02T03:20:38;11.82;64.76
75683;HTU21D;64295;44.772;39.872;2023-05-02T03:23:04;11.87;64.75
75683;HTU21D;64295;44.772;39.872;2023-05-02T03:25:31;11.89;64.72
75683;HTU21D;64295;44.772;39.872;2023-05-02T03:27:57;11.88;64.76
75683;HTU21D;64295;44.772;39.872;2023-05-02T03:30:23;11.87;64.84
75683;HTU21D;64295;44.772;39.872;2023-05-02T03:32:49;11.86;64.89
75683;HTU21D;64295;44.772;39.872;2023-05-02T03:35:16;11.89;64.89
75683;HTU21D;64295;44.772;39.872;2023-05-02T03:37:45;11.91;64.86
75683;HTU21D;64295;44.772;39.872;2023-05-02T03:40:11;11.92;64.92
75683;HTU21D;64295;44.772;39.872;2023-05-02T03:42:37;11.94;64.96
75683;HTU21D;64295;44.772;39.872;2023-05-02T03:45:16;11.96;64.94
75683;HTU21D;64295;44.772;39.872;2023-05-02T03:47:43;11.98;64.95
75683;HTU21D;64295;44.772;39.872;2023-05-02T03:50:10;12.00;64.95
75683;HTU21D;64295;44.772;39.872;2023-05-02T03:52:36;12.03;64.93
75683;HTU21D;64295;44.772;39.872;2023-05-02T03:55:02;12.04;64.94
75683;HTU21D;64295;44.772;39.872;2023-05-02T03:57:30;12.06;64.94
75683;HTU21D;64295;44.772;39.872;2023-05-02T03:59:56;12.07;64.98
75683;HTU21D;64295;44.772;39.872;2023-05-02T04:02:26;12.12;64.95
75683;HTU21D;64295;44.772;39.872;2023-05-02T04:04:53;12.12;64.94
75683;HTU21D;64295;44.772;39.872;2023-05-02T04:07:23;12.14;64.95
75683;HTU21D;64295;44.772;39.872;2023-05-02T04:10:00;12.16;64.91
75683;HTU21D;64295;44.772;39.872;2023-05-02T04:12:26;12.16;64.93
75683;HTU21D;64295;44.772;39.872;2023-05-02T04:14:58;12.07;65.10
75683;HTU21D;64295;44.772;39.872;2023-05-02T04:17:28;12.03;65.20
75683;HTU21D;64295;44.772;39.872;2023-05-02T04:19:53;11.99;65.25
75683;HTU21D;64295;44.772;39.872;2023-05-02T04:22:23;11.99;65.29
75683;HTU21D;64295;44.772;39.872;2023-05-02T04:24:54;12.00;65.25
75683;HTU21D;64295;44.772;39.872;2023-05-02T04:27:41;12.04;65.23
75683;HTU21D;64295;44.772;39.872;2023-05-02T04:30:21;12.13;65.09
75683;HTU21D;64295;44.772;39.872;2023-05-02T04:32:59;12.14;64.99
75683;HTU21D;64295;44.772;39.872;2023-05-02T04:35:30;12.13;65.04
75683;HTU21D;64295;44.772;39.872;2023-05-02T04:37:56;12.16;65.04
75683;HTU21D;64295;44.772;39.872;2023-05-02T04:40:22;12.14;65.17
75683;HTU21D;64295;44.772;39.872;2023-05-02T04:42:53;12.18;65.08
75683;HTU21D;64295;44.772;39.872;2023-05-02T04:45:23;12.18;65.12
75683;HTU21D;64295;44.772;39.872;2023-05-02T04:47:50;12.16;65.21
75683;HTU21D;64295;44.772;39.872;2023-05-02T04:50:17;12.14;65.27
75683;HTU21D;64295;44.772;39.872;2023-05-02T04:52:43;12.12;65.31
75683;HTU21D;64295;44.772;39.872;2023-05-02T04:55:09;12.11;65.37
75683;HTU21D;64295;44.772;39.872;2023-05-02T04:57:36;12.13;65.33
75683;HTU21D;64295;44.772;39.872;2023-05-02T05:00:03;12.11;65.37
75683;HTU21D;64295;44.772;39.872;2023-05-02T05:02:30;12.12;65.41
75683;HTU21D;64295;44.772;39.872;2023-05-02T05:04:57;12.11;65.42
75683;HTU21D;64295;44.772;39.872;2023-05-02T05:07:23;12.13;65.43
75683;HTU21D;64295;44.772;39.872;2023-05-02T05:09:52;12.16;65.37
75683;HTU21D;64295;44.772;39.872;2023-05-02T05:12:18;12.21;65.31
75683;HTU21D;64295;44.772;39.872;2023-05-02T05:14:45;12.23;65.30
75683;HTU21D;64295;44.772;39.872;2023-05-02T05:17:10;12.20;65.38
75683;HTU21D;64295;44.772;39.872;2023-05-02T05:19:36;12.25;65.37
75683;HTU21D;64295;44.772;39.872;2023-05-02T05:22:07;12.27;65.42
75683;HTU21D;64295;44.772;39.872;2023-05-02T05:24:33;12.28;65.43
75683;HTU21D;64295;44.772;39.872;2023-05-02T05:26:59;12.29;65.47
75683;HTU21D;64295;44.772;39.872;2023-05-02T05:29:25;12.36;65.37
75683;HTU21D;64295;44.772;39.872;2023-05-02T05:31:51;12.41;65.37
75683;HTU21D;64295;44.772;39.872;2023-05-02T05:34:19;12.41;65.40
75683;HTU21D;64295;44.772;39.872;2023-05-02T05:36:47;12.42;65.40
75683;HTU21D;64295;44.772;39.872;2023-05-02T05:39:13;12.42;65.47
75683;HTU21D;64295;44.772;39.872;2023-05-02T05:41:41;12.46;65.45
75683;HTU21D;64295;44.772;39.872;2023-05-02T05:44:10;12.50;65.40
75683;HTU21D;64295;44.772;39.872;2023-05-02T05:46:36;12.59;65.34
75683;HTU21D;64295;44.772;39.872;2023-05-02T05:49:14;12.77;65.09
75683;HTU21D;64295;44.772;39.872;2023-05-02T05:51:43;13.03;64.71
75683;HTU21D;64295;44.772;39.872;2023-05-02T05:54:17;13.22;64.44
75683;HTU21D;64295;44.772;39.872;2023-05-02T05:56:44;13.41;64.14
75683;HTU21D;64295;44.772;39.872;2023-05-02T05:59:14;13.51;64.01
75683;HTU21D;64295;44.772;39.872;2023-05-02T06:01:40;13.52;64.06
75683;HTU21D;64295;44.772;39.872;2023-05-02T06:04:07;13.52;64.13
75683;HTU21D;64295;44.772;39.872;2023-05-02T06:06:36;13.58;64.14
75683;HTU21D;64295;44.772;39.872;2023-05-02T06:09:02;13.69;64.01
75683;HTU21D;64295;44.772;39.872;2023-05-02T06:11:30;13.82;63.89
75683;HTU21D;64295;44.772;39.872;2023-05-02T06:13:56;13.89;63.81
75683;HTU21D;64295;44.772;39.872;2023-05-02T06:16:22;13.89;63.82
75683;HTU21D;64295;44.772;39.872;2023-05-02T06:18:50;13.99;63.84
75683;HTU21D;64295;44.772;39.872;2023-05-02T06:21:19;14.12;63.63
75683;HTU21D;64295;44.772;39.872;2023-05-02T06:23:45;14.19;63.60
75683;HTU21D;64295;44.772;39.872;2023-05-02T06:26:11;14.27;63.49
75683;HTU21D;64295;44.772;39.872;2023-05-02T06:28:40;14.23;63.52
75683;HTU21D;64295;44.772;39.872;2023-05-02T06:31:06;14.26;63.56
75683;HTU21D;64295;44.772;39.872;2023-05-02T06:33:32;14.33;63.50
75683;HTU21D;64295;44.772;39.872;2023-05-02T06:35:59;14.27;63.52
75683;HTU21D;64295;44.772;39.872;2023-05-02T06:38:24;14.23;63.69
75683;HTU21D;64295;44.772;39.872;2023-05-02T06:40:50;14.27;63.66
75683;HTU21D;64295;44.772;39.872;2023-05-02T06:43:17;14.29;63.60
75683;HTU21D;64295;44.772;39.872;2023-05-02T06:45:43;14.48;63.50
75683;HTU21D;64295;44.772;39.872;2023-05-02T06:48:10;14.47;63.47
75683;HTU21D;64295;44.772;39.872;2023-05-02T06:50:36;14.44;63.53
75683;HTU21D;64295;44.772;39.872;2023-05-02T06:53:03;14.52;63.48
75683;HTU21D;64295;44.772;39.872;2023-05-02T06:55:30;14.62;63.30
75683;HTU21D;64295;44.772;39.872;2023-05-02T06:57:56;14.67;63.17
75683;HTU21D;64295;44.772;39.872;2023-05-02T07:00:22;14.67;63.22
75683;HTU21D;64295;44.772;39.872;2023-05-02T07:02:48;14.67;63.27
75683;HTU21D;64295;44.772;39.872;2023-05-02T07:05:15;14.72;63.16
75683;HTU21D;64295;44.772;39.872;2023-05-02T07:07:41;14.71;63.16
75683;HTU21D;64295;44.772;39.872;2023-05-02T07:10:08;14.67;63.29
75683;HTU21D;64295;44.772;39.872;2023-05-02T07:12:34;14.59;63.34
75683;HTU21D;64295;44.772;39.872;2023-05-02T07:15:00;14.54;63.46
75683;HTU21D;64295;44.772;39.872;2023-05-02T07:17:26;14.58;63.41
75683;HTU21D;64295;44.772;39.872;2023-05-02T07:19:52;14.63;63.19
75683;HTU21D;64295;44.772;39.872;2023-05-02T07:22:19;14.62;63.19
75683;HTU21D;64295;44.772;39.872;2023-05-02T07:24:45;14.56;63.14
75683;HTU21D;64295;44.772;39.872;2023-05-02T07:27:12;14.60;63.13
75683;HTU21D;64295;44.772;39.872;2023-05-02T07:29:39;14.69;62.92
75683;HTU21D;64295;44.772;39.872;2023-05-02T07:32:07;14.74;62.86
75683;HTU21D;64295;44.772;39.872;2023-05-02T07:34:33;14.85;62.68
75683;HTU21D;64295;44.772;39.872;2023-05-02T07:36:59;15.03;62.43
75683;HTU21D;64295;44.772;39.872;2023-05-02T07:39:25;15.15;62.21
75683;HTU21D;64295;44.772;39.872;2023-05-02T07:41:51;15.29;62.08
75683;HTU21D;64295;44.772;39.872;2023-05-02T07:44:18;15.45;61.91
75683;HTU21D;64295;44.772;39.872;2023-05-02T07:46:45;15.65;61.69
75683;HTU21D;64295;44.772;39.872;2023-05-02T07:49:11;15.77;61.50
75683;HTU21D;64295;44.772;39.872;2023-05-02T07:51:38;15.96;61.26
75683;HTU21D;64295;44.772;39.872;2023-05-02T07:54:18;16.07;60.99
75683;HTU21D;64295;44.772;39.872;2023-05-02T07:56:44;16.14;60.64
75683;HTU21D;64295;44.772;39.872;2023-05-02T07:59:10;16.18;60.68
75683;HTU21D;64295;44.772;39.872;2023-05-02T08:01:37;16.42;60.34
75683;HTU21D;64295;44.772;39.872;2023-05-02T08:04:03;16.60;60.07
75683;HTU21D;64295;44.772;39.872;2023-05-02T08:06:29;16.52;59.90
75683;HTU21D;64295;44.772;39.872;2023-05-02T08:08:55;16.39;60.16
75683;HTU21D;64295;44.772;39.872;2023-05-02T08:11:21;16.17;60.41
75683;HTU21D;64295;44.772;39.872;2023-05-02T08:13:50;16.18;60.60
75683;HTU21D;64295;44.772;39.872;2023-05-02T08:16:17;16.36;60.40
75683;HTU21D;64295;44.772;39.872;2023-05-02T08:18:43;16.60;60.09
75683;HTU21D;64295;44.772;39.872;2023-05-02T08:21:09;16.77;59.62
75683;HTU21D;64295;44.772;39.872;2023-05-02T08:23:35;16.76;59.65
75683;HTU21D;64295;44.772;39.872;2023-05-02T08:26:02;16.93;59.41
75683;HTU21D;64295;44.772;39.872;2023-05-02T08:28:28;16.92;59.20
75683;HTU21D;64295;44.772;39.872;2023-05-02T08:30:55;16.91;59.18
75683;HTU21D;64295;44.772;39.872;2023-05-02T08:33:22;16.88;58.26
75683;HTU21D;64295;44.772;39.872;2023-05-02T08:35:48;16.77;58.51
75683;HTU21D;64295;44.772;39.872;2023-05-02T08:38:14;16.86;58.49
75683;HTU21D;64295;44.772;39.872;2023-05-02T08:40:40;17.01;58.19
75683;HTU21D;64295;44.772;39.872;2023-05-02T08:43:06;17.19;57.77
75683;HTU21D;64295;44.772;39.872;2023-05-02T08:45:39;17.20;56.74
75683;HTU21D;64295;44.772;39.872;2023-05-02T08:48:08;17.16;56.87
75683;HTU21D;64295;44.772;39.872;2023-05-02T08:50:43;17.14;56.75
75683;HTU21D;64295;44.772;39.872;2023-05-02T08:53:11;17.06;57.08
75683;HTU21D;64295;44.772;39.872;2023-05-02T08:55:39;17.23;57.15
75683;HTU21D;64295;44.772;39.872;2023-05-02T08:58:08;17.29;56.54
75683;HTU21D;64295;44.772;39.872;2023-05-02T09:00:39;17.18;55.97
75683;HTU21D;64295;44.772;39.872;2023-05-02T09:05:52;16.85;56.13
75683;HTU21D;64295;44.772;39.872;2023-05-02T09:08:22;16.78;56.32
75683;HTU21D;64295;44.772;39.872;2023-05-02T09:10:49;16.81;56.57
75683;HTU21D;64295;44.772;39.872;2023-05-02T09:13:37;16.90;56.23
75683;HTU21D;64295;44.772;39.872;2023-05-02T09:16:08;16.90;56.13
75683;HTU21D;64295;44.772;39.872;2023-05-02T09:18:41;16.85;56.07
75683;HTU21D;64295;44.772;39.872;2023-05-02T09:21:20;16.84;56.16
75683;HTU21D;64295;44.772;39.872;2023-05-02T09:23:50;16.85;56.27
75683;HTU21D;64295;44.772;39.872;2023-05-02T09:26:22;16.88;56.31
75683;HTU21D;64295;44.772;39.872;2023-05-02T09:28:50;16.89;56.35
75683;HTU21D;64295;44.772;39.872;2023-05-02T09:31:21;16.88;56.36
75683;HTU21D;64295;44.772;39.872;2023-05-02T09:33:49;16.91;56.33
75683;HTU21D;64295;44.772;39.872;2023-05-02T09:36:16;16.89;55.97
75683;HTU21D;64295;44.772;39.872;2023-05-02T09:38:42;16.88;55.88
75683;HTU21D;64295;44.772;39.872;2023-05-02T09:41:09;16.87;55.77
75683;HTU21D;64295;44.772;39.872;2023-05-02T09:43:36;16.96;55.67
75683;HTU21D;64295;44.772;39.872;2023-05-02T09:46:11;17.06;55.01
75683;HTU21D;64295;44.772;39.872;2023-05-02T09:48:56;17.01;55.00
75683;HTU21D;64295;44.772;39.872;2023-05-02T09:51:24;16.99;55.00
75683;HTU21D;64295;44.772;39.872;2023-05-02T09:53:51;17.03;54.90
75683;HTU21D;64295;44.772;39.872;2023-05-02T09:56:17;17.03;54.59
75683;HTU21D;64295;44.772;39.872;2023-05-02T09:58:43;17.16;54.72
75683;HTU21D;64295;44.772;39.872;2023-05-02T10:01:17;17.39;54.52
75683;HTU21D;64295;44.772;39.872;2023-05-02T10:03:46;17.52;54.37
75683;HTU21D;64295;44.772;39.872;2023-05-02T10:06:12;17.55;54.43
75683;HTU21D;64295;44.772;39.872;2023-05-02T10:08:41;17.52;54.50
75683;HTU21D;64295;44.772;39.872;2023-05-02T10:11:07;17.66;54.55
75683;HTU21D;64295;44.772;39.872;2023-05-02T10:13:37;17.90;54.33
75683;HTU21D;64295;44.772;39.872;2023-05-02T10:16:05;17.98;54.38
75683;HTU21D;64295;44.772;39.872;2023-05-02T10:18:42;18.15;54.42
75683;HTU21D;64295;44.772;39.872;2023-05-02T10:21:16;18.35;54.31
75683;HTU21D;64295;44.772;39.872;2023-05-02T10:23:43;18.49;54.14
75683;HTU21D;64295;44.772;39.872;2023-05-02T10:26:13;18.50;54.04
75683;HTU21D;64295;44.772;39.872;2023-05-02T10:28:40;18.26;53.78
75683;HTU21D;64295;44.772;39.872;2023-05-02T10:31:10;18.02;53.94
75683;HTU21D;64295;44.772;39.872;2023-05-02T10:33:38;17.85;54.38
75683;HTU21D;64295;44.772;39.872;2023-05-02T10:36:06;17.83;54.33
75683;HTU21D;64295;44.772;39.872;2023-05-02T10:38:32;17.76;54.35
75683;HTU21D;64295;44.772;39.872;2023-05-02T10:41:13;17.81;53.81
75683;HTU21D;64295;44.772;39.872;2023-05-02T10:43:45;17.80;53.98
75683;HTU21D;64295;44.772;39.872;2023-05-02T10:46:32;18.04;53.91
75683;HTU21D;64295;44.772;39.872;2023-05-02T10:49:05;18.27;53.80
75683;HTU21D;64295;44.772;39.872;2023-05-02T10:51:32;18.46;53.65
75683;HTU21D;64295;44.772;39.872;2023-05-02T10:54:21;18.46;53.54
75683;HTU21D;64295;44.772;39.872;2023-05-02T10:59:35;18.20;53.54
75683;HTU21D;64295;44.772;39.872;2023-05-02T11:02:47;18.09;53.64
75683;HTU21D;64295;44.772;39.872;2023-05-02T11:05:00;18.12;53.44
75683;HTU21D;64295;44.772;39.872;2023-05-02T11:07:28;18.06;53.10
75683;HTU21D;64295;44.772;39.872;2023-05-02T11:12:56;17.85;52.94
75683;HTU21D;64295;44.772;39.872;2023-05-02T11:20:28;18.17;52.82
75683;HTU21D;64295;44.772;39.872;2023-05-02T11:23:18;18.25;52.65
75683;HTU21D;64295;44.772;39.872;2023-05-02T11:25:54;18.35;52.65
75683;HTU21D;64295;44.772;39.872;2023-05-02T11:31:05;18.48;52.16
75683;HTU21D;64295;44.772;39.872;2023-05-02T11:33:31;18.44;52.44
75683;HTU21D;64295;44.772;39.872;2023-05-02T11:35:57;18.33;52.20
75683;HTU21D;64295;44.772;39.872;2023-05-02T11:38:24;18.29;52.29
75683;HTU21D;64295;44.772;39.872;2023-05-02T11:43:21;18.29;52.17
75683;HTU21D;64295;44.772;39.872;2023-05-02T11:45:49;18.34;51.96
75683;HTU21D;64295;44.772;39.872;2023-05-02T11:48:17;18.26;52.09
75683;HTU21D;64295;44.772;39.872;2023-05-02T11:50:49;18.34;52.11
75683;HTU21D;64295;44.772;39.872;2023-05-02T11:53:17;18.38;52.08
75683;HTU21D;64295;44.772;39.872;2023-05-02T11:55:45;18.40;52.01
75683;HTU21D;64295;44.772;39.872;2023-05-02T11:58:12;18.33;52.02
75683;HTU21D;64295;44.772;39.872;2023-05-02T12:00:39;18.26;51.69
75683;HTU21D;64295;44.772;39.872;2023-05-02T12:03:05;18.08;51.74
75683;HTU21D;64295;44.772;39.872;2023-05-02T12:05:31;18.03;51.61
75683;HTU21D;64295;44.772;39.872;2023-05-02T12:07:57;17.94;51.73
75683;HTU21D;64295;44.772;39.872;2023-05-02T12:10:34;17.91;51.79
75683;HTU21D;64295;44.772;39.872;2023-05-02T12:13:04;17.88;51.81
75683;HTU21D;64295;44.772;39.872;2023-05-02T12:15:32;17.83;51.78
75683;HTU21D;64295;44.772;39.872;2023-05-02T12:17:58;17.80;51.76
75683;HTU21D;64295;44.772;39.872;2023-05-02T12:20:25;17.76;51.55
75683;HTU21D;64295;44.772;39.872;2023-05-02T12:22:53;17.64;51.04
75683;HTU21D;64295;44.772;39.872;2023-05-02T12:25:19;17.60;51.21
75683;HTU21D;64295;44.772;39.872;2023-05-02T12:27:58;17.63;51.23
75683;HTU21D;64295;44.772;39.872;2023-05-02T12:30:26;17.65;51.13
75683;HTU21D;64295;44.772;39.872;2023-05-02T12:32:58;17.60;50.95
75683;HTU21D;64295;44.772;39.872;2023-05-02T12:35:26;17.51;50.99
75683;HTU21D;64295;44.772;39.872;2023-05-02T12:37:53;17.48;51.04
75683;HTU21D;64295;44.772;39.872;2023-05-02T12:40:20;17.45;51.11
75683;HTU21D;64295;44.772;39.872;2023-05-02T12:43:03;17.41;51.22
75683;HTU21D;64295;44.772;39.872;2023-05-02T12:45:31;17.46;51.33
75683;HTU21D;64295;44.772;39.872;2023-05-02T12:48:22;17.45;51.33
75683;HTU21D;64295;44.772;39.872;2023-05-02T12:50:49;17.47;51.49
75683;HTU21D;64295;44.772;39.872;2023-05-02T12:53:15;17.46;51.54
75683;HTU21D;64295;44.772;39.872;2023-05-02T12:55:42;17.35;51.37
75683;HTU21D;64295;44.772;39.872;2023-05-02T12:58:09;17.25;51.66
75683;HTU21D;64295;44.772;39.872;2023-05-02T13:00:41;17.26;51.76
75683;HTU21D;64295;44.772;39.872;2023-05-02T13:03:08;17.28;51.90
75683;HTU21D;64295;44.772;39.872;2023-05-02T13:05:35;17.31;52.04
75683;HTU21D;64295;44.772;39.872;2023-05-02T13:08:01;17.32;52.15
75683;HTU21D;64295;44.772;39.872;2023-05-02T13:10:27;17.32;52.27
75683;HTU21D;64295;44.772;39.872;2023-05-02T13:12:54;17.33;52.28
75683;HTU21D;64295;44.772;39.872;2023-05-02T13:15:20;17.32;52.30
75683;HTU21D;64295;44.772;39.872;2023-05-02T13:17:46;17.24;52.37
75683;HTU21D;64295;44.772;39.872;2023-05-02T13:20:12;17.20;52.53
75683;HTU21D;64295;44.772;39.872;2023-05-02T13:22:38;17.15;52.68
75683;HTU21D;64295;44.772;39.872;2023-05-02T13:25:05;17.01;52.98
75683;HTU21D;64295;44.772;39.872;2023-05-02T13:27:31;16.91;53.28
75683;HTU21D;64295;44.772;39.872;2023-05-02T13:29:59;16.78;53.53
75683;HTU21D;64295;44.772;39.872;2023-05-02T13:32:28;16.73;53.74
75683;HTU21D;64295;44.772;39.872;2023-05-02T13:34:54;16.62;53.95
75683;HTU21D;64295;44.772;39.872;2023-05-02T13:37:20;16.55;54.17
75683;HTU21D;64295;44.772;39.872;2023-05-02T13:39:46;16.46;54.35
75683;HTU21D;64295;44.772;39.872;2023-05-02T13:42:17;16.42;54.55
75683;HTU21D;64295;44.772;39.872;2023-05-02T13:44:52;16.29;54.81
75683;HTU21D;64295;44.772;39.872;2023-05-02T13:47:18;16.15;55.18
75683;HTU21D;64295;44.772;39.872;2023-05-02T13:49:43;16.08;55.45
75683;HTU21D;64295;44.772;39.872;2023-05-02T13:52:22;16.02;55.63
75683;HTU21D;64295;44.772;39.872;2023-05-02T13:54:48;15.96;55.80
75683;HTU21D;64295;44.772;39.872;2023-05-02T13:57:14;15.84;56.03
75683;HTU21D;64295;44.772;39.872;2023-05-02T13:59:40;15.75;56.32
75683;HTU21D;64295;44.772;39.872;2023-05-02T14:02:06;15.74;56.48
75683;HTU21D;64295;44.772;39.872;2023-05-02T14:04:32;15.74;56.60
75683;HTU21D;64295;44.772;39.872;2023-05-02T14:06:58;15.72;56.78
75683;HTU21D;64295;44.772;39.872;2023-05-02T14:09:24;15.75;56.90
75683;HTU21D;64295;44.772;39.872;2023-05-02T14:11:50;15.80;57.00
75683;HTU21D;64295;44.772;39.872;2023-05-02T14:14:16;15.84;57.07
75683;HTU21D;64295;44.772;39.872;2023-05-02T14:16:42;15.88;57.16
75683;HTU21D;64295;44.772;39.872;2023-05-02T14:19:08;15.90;57.23
75683;HTU21D;64295;44.772;39.872;2023-05-02T14:21:34;15.87;57.42
75683;HTU21D;64295;44.772;39.872;2023-05-02T14:24:00;15.89;57.52
75683;HTU21D;64295;44.772;39.872;2023-05-02T14:26:26;15.87;57.65
75683;HTU21D;64295;44.772;39.872;2023-05-02T14:28:52;15.89;57.77
75683;HTU21D;64295;44.772;39.872;2023-05-02T14:31:18;15.90;57.89
75683;HTU21D;64295;44.772;39.872;2023-05-02T14:33:44;15.89;58.02
75683;HTU21D;64295;44.772;39.872;2023-05-02T14:36:10;15.90;58.12
75683;HTU21D;64295;44.772;39.872;2023-05-02T14:38:37;15.91;58.16
75683;HTU21D;64295;44.772;39.872;2023-05-02T14:41:03;15.92;58.22
75683;HTU21D;64295;44.772;39.872;2023-05-02T14:43:28;15.92;58.27
75683;HTU21D;64295;44.772;39.872;2023-05-02T14:45:55;15.92;58.30
75683;HTU21D;64295;44.772;39.872;2023-05-02T14:48:22;15.90;58.33
75683;HTU21D;64295;44.772;39.872;2023-05-02T14:50:48;15.86;58.43
75683;HTU21D;64295;44.772;39.872;2023-05-02T14:53:13;15.81;58.48
75683;HTU21D;64295;44.772;39.872;2023-05-02T14:55:40;15.77;58.49
75683;HTU21D;64295;44.772;39.872;2023-05-02T14:58:07;15.74;58.48
75683;HTU21D;64295;44.772;39.872;2023-05-02T15:00:37;15.71;58.48
75683;HTU21D;64295;44.772;39.872;2023-05-02T15:03:04;15.68;58.51
75683;HTU21D;64295;44.772;39.872;2023-05-02T15:05:30;15.67;58.51
75683;HTU21D;64295;44.772;39.872;2023-05-02T15:07:56;15.66;58.51
75683;HTU21D;64295;44.772;39.872;2023-05-02T15:10:22;15.62;58.55
75683;HTU21D;64295;44.772;39.872;2023-05-02T15:12:47;15.61;58.62
75683;HTU21D;64295;44.772;39.872;2023-05-02T15:15:17;15.61;58.64
75683;HTU21D;64295;44.772;39.872;2023-05-02T15:17:43;15.62;58.67
75683;HTU21D;64295;44.772;39.872;2023-05-02T15:20:10;15.61;58.68
75683;HTU21D;64295;44.772;39.872;2023-05-02T15:22:37;15.58;58.72
75683;HTU21D;64295;44.772;39.872;2023-05-02T15:25:03;15.58;58.74
75683;HTU21D;64295;44.772;39.872;2023-05-02T15:27:29;15.56;58.77
75683;HTU21D;64295;44.772;39.872;2023-05-02T15:29:55;15.57;58.78
75683;HTU21D;64295;44.772;39.872;2023-05-02T15:32:20;15.56;58.80
75683;HTU21D;64295;44.772;39.872;2023-05-02T15:34:46;15.54;58.81
75683;HTU21D;64295;44.772;39.872;2023-05-02T15:37:13;15.55;58.83
75683;HTU21D;64295;44.772;39.872;2023-05-02T15:39:39;15.55;58.82
75683;HTU21D;64295;44.772;39.872;2023-05-02T15:42:05;15.49;58.92
75683;HTU21D;64295;44.772;39.872;2023-05-02T15:44:37;15.45;59.13
75683;HTU21D;64295;44.772;39.872;2023-05-02T15:47:03;15.36;59.32
75683;HTU21D;64295;44.772;39.872;2023-05-02T15:49:29;15.26;59.58
75683;HTU21D;64295;44.772;39.872;2023-05-02T15:52:01;15.18;59.86
75683;HTU21D;64295;44.772;39.872;2023-05-02T15:54:27;15.17;59.90
75683;HTU21D;64295;44.772;39.872;2023-05-02T15:56:53;15.15;59.98